Time,TemperatureF,DewpointF,PressureIn,WindDirection,WindDirectionDegrees,WindSpeedMPH,WindSpeedGustMPH,Humidity,HourlyPrecipIn,Conditions,Clouds,dailyrainin,SolarRadiationWatts/m^2,SoftwareType,DateUTC
2013-02-09 00:00:00,21.3,19.3,29.85,NW,324,0.0,0.0,92,0.00,SCT,,0.00,0.0,WeatherDisplay:10.37,2013-02-08 23:00:00,
2013-02-09 00:05:00,21.3,19.3,29.85,NW,324,0.0,0.0,92,0.00,SCT,,0.00,0.0,WeatherDisplay:10.37,2013-02-08 23:05:00,
2013-02-09 00:11:00,21.4,19.4,29.85,NW,324,0.0,0.0,92,0.00,SCT,,0.00,0.0,WeatherDisplay:10.37,2013-02-08 23:11:00,
2013-02-09 00:16:00,21.3,19.3,29.85,NW,324,0.0,0.0,92,0.00,SCT,,0.00,0.0,WeatherDisplay:10.37,2013-02-08 23:16:00,
2013-02-09 00:21:00,21.3,19.3,29.85,NW,324,0.0,0.0,92,0.00,SCT,,0.00,0.0,WeatherDisplay:10.37,2013-02-08 23:21:00,
2013-02-09 00:26:00,21.2,19.2,29.85,NW,324,0.0,0.0,92,0.00,SCT,,0.00,0.0,WeatherDisplay:10.37,2013-02-08 23:26:00,
2013-02-09 00:32:00,21.2,19.2,29.85,NW,324,0.0,0.0,92,0.00,SCT,,0.00,0.0,WeatherDisplay:10.37,2013-02-08 23:32:00,
2013-02-09 00:37:00,21.2,19.5,29.85,NW,324,0.0,0.0,93,0.00,SCT,,0.00,0.0,WeatherDisplay:10.37,2013-02-08 23:37:00,
2013-02-09 00:42:00,21.0,19.3,29.86,NW,324,0.0,0.0,93,0.00,SCT,,0.00,0.0,WeatherDisplay:10.37,2013-02-08 23:42:00,
2013-02-09 00:47:00,21.0,19.3,29.86,NW,324,0.0,0.0,93,0.00,SCT,,0.00,0.0,WeatherDisplay:10.37,2013-02-08 23:47:00,
2013-02-09 00:52:00,20.8,18.8,29.86,NW,324,0.0,0.0,92,0.00,SCT,,0.00,0.0,WeatherDisplay:10.37,2013-02-08 23:52:00,
2013-02-09 00:57:00,20.7,18.7,29.86,NW,324,0.0,0.0,92,0.00,SCT,,0.00,0.0,WeatherDisplay:10.37,2013-02-08 23:57:00,
2013-02-09 01:02:00,20.7,18.7,29.86,NW,324,0.0,0.0,92,0.00,SCT,,0.00,0.0,WeatherDisplay:10.37,2013-02-09 00:02:00,
2013-02-09 01:07:00,20.5,18.5,29.86,NW,324,0.0,0.0,92,0.00,SCT,,0.00,0.0,WeatherDisplay:10.37,2013-02-09 00:07:00,
2013-02-09 01:12:00,20.4,18.4,29.86,North,360,0.0,0.0,92,0.00,SCT,,0.00,0.0,WeatherDisplay:10.37,2013-02-09 00:12:00,
2013-02-09 01:17:00,20.3,18.3,29.86,NW,324,0.0,0.0,92,0.00,SCT,,0.00,0.0,WeatherDisplay:10.37,2013-02-09 00:17:00,
2013-02-09 01:22:00,20.3,18.3,29.87,NW,324,0.0,0.0,92,0.00,SCT,,0.00,0.0,WeatherDisplay:10.37,2013-02-09 00:22:00,
2013-02-09 01:27:00,20.3,18.6,29.87,NW,324,0.0,0.0,93,0.00,SCT,,0.00,0.0,WeatherDisplay:10.37,2013-02-09 00:27:00,
2013-02-09 01:32:00,20.3,18.6,29.87,NW,324,0.0,0.0,93,0.00,SCT,,0.00,0.0,WeatherDisplay:10.37,2013-02-09 00:32:00,
2013-02-09 01:37:00,20.3,18.6,29.87,NW,324,0.0,0.0,93,0.00,SCT,,0.00,0.0,WeatherDisplay:10.37,2013-02-09 00:37:00,
2013-02-09 01:42:00,20.3,18.6,29.87,North,360,0.0,0.0,93,0.00,SCT,,0.00,0.0,WeatherDisplay:10.37,2013-02-09 00:42:00,
2013-02-09 01:47:00,20.3,18.6,29.87,NW,324,0.0,0.0,93,0.00,SCT,,0.00,0.0,WeatherDisplay:10.37,2013-02-09 00:47:00,
2013-02-09 01:52:00,20.4,18.7,29.87,NW,324,0.0,0.0,93,0.00,SCT,,0.00,0.0,WeatherDisplay:10.37,2013-02-09 00:52:00,
2013-02-09 01:57:00,20.6,19.1,29.87,NW,324,0.0,1.1,94,0.00,SCT,,0.00,0.0,WeatherDisplay:10.37,2013-02-09 00:57:00,
2013-02-09 02:02:00,21.0,19.5,29.87,North,360,0.0,0.0,94,0.00,SCT,,0.00,0.0,WeatherDisplay:10.37,2013-02-09 01:02:00,
2013-02-09 02:07:00,21.2,19.5,29.87,NW,324,0.0,0.0,93,0.00,SCT,,0.00,0.0,WeatherDisplay:10.37,2013-02-09 01:07:00,
2013-02-09 02:12:00,21.3,19.8,29.86,NW,324,0.0,0.0,94,0.00,SCT,,0.00,0.0,WeatherDisplay:10.37,2013-02-09 01:12:00,
2013-02-09 02:17:00,21.3,19.6,29.87,NW,324,0.0,0.0,93,0.00,SCT,,0.00,0.0,WeatherDisplay:10.37,2013-02-09 01:17:00,
2013-02-09 02:22:00,21.1,19.4,29.86,NW,324,0.0,0.0,93,0.00,SCT,,0.00,0.0,WeatherDisplay:10.37,2013-02-09 01:22:00,
2013-02-09 02:27:00,21.0,19.3,29.86,NW,324,0.0,0.0,93,0.00,SCT,,0.00,0.0,WeatherDisplay:10.37,2013-02-09 01:27:00,
2013-02-09 02:32:00,20.8,19.1,29.86,NW,324,0.0,0.0,93,0.00,SCT,,0.00,0.0,WeatherDisplay:10.37,2013-02-09 01:32:00,
2013-02-09 02:37:00,20.6,18.9,29.86,NW,324,0.0,0.0,93,0.00,SCT,,0.00,0.0,WeatherDisplay:10.37,2013-02-09 01:37:00,
2013-02-09 02:42:00,20.4,18.7,29.86,NW,324,0.0,0.0,93,0.00,SCT,,0.00,0.0,WeatherDisplay:10.37,2013-02-09 01:42:00,
2013-02-09 02:47:00,20.3,18.6,29.87,NW,324,0.0,0.0,93,0.00,SCT,,0.00,0.0,WeatherDisplay:10.37,2013-02-09 01:47:00,
2013-02-09 02:52:00,20.1,18.4,29.87,NW,324,0.0,0.0,93,0.00,SCT,,0.00,0.0,WeatherDisplay:10.37,2013-02-09 01:52:00,
2013-02-09 02:58:00,19.9,18.2,29.86,NW,324,0.0,0.0,93,0.00,SCT,,0.00,0.0,WeatherDisplay:10.37,2013-02-09 01:58:00,
2013-02-09 03:03:00,19.7,18.0,29.86,NW,324,0.0,0.0,93,0.00,SCT,,0.00,0.0,WeatherDisplay:10.37,2013-02-09 02:03:00,
2013-02-09 03:08:00,19.6,17.9,29.86,NW,324,0.0,0.0,93,0.00,SCT,,0.00,0.0,WeatherDisplay:10.37,2013-02-09 02:08:00,
2013-02-09 03:13:00,19.5,17.8,29.87,NW,324,0.0,0.0,93,0.00,SCT,,0.00,0.0,WeatherDisplay:10.37,2013-02-09 02:13:00,
2013-02-09 03:18:00,19.4,17.7,29.86,NW,324,0.0,0.0,93,0.00,SCT,,0.00,0.0,WeatherDisplay:10.37,2013-02-09 02:18:00,
2013-02-09 03:23:00,19.4,17.7,29.87,NW,324,0.0,0.0,93,0.00,SCT,,0.00,0.0,WeatherDisplay:10.37,2013-02-09 02:23:00,
2013-02-09 03:28:00,19.2,17.5,29.87,NW,324,0.0,0.0,93,0.00,SCT,,0.00,0.0,WeatherDisplay:10.37,2013-02-09 02:28:00,
2013-02-09 03:34:00,19.1,17.4,29.87,NW,324,0.0,0.0,93,0.00,SCT,,0.00,0.0,WeatherDisplay:10.37,2013-02-09 02:34:00,
2013-02-09 03:39:00,19.1,17.4,29.87,NW,324,0.0,0.0,93,0.00,SCT,,0.00,0.0,WeatherDisplay:10.37,2013-02-09 02:39:00,
2013-02-09 03:44:00,19.0,17.3,29.87,North,360,0.0,0.0,93,0.00,SCT,,0.00,0.0,WeatherDisplay:10.37,2013-02-09 02:44:00,
2013-02-09 03:49:00,18.9,17.2,29.88,NW,324,0.0,0.0,93,0.00,SCT,,0.00,0.0,WeatherDisplay:10.37,2013-02-09 02:49:00,
2013-02-09 03:54:00,19.0,17.3,29.87,NW,324,0.0,0.0,93,0.00,SCT,,0.00,0.0,WeatherDisplay:10.37,2013-02-09 02:54:00,
2013-02-09 03:59:00,19.0,17.3,29.87,NW,324,0.0,0.0,93,0.00,SCT,,0.00,0.0,WeatherDisplay:10.37,2013-02-09 02:59:00,
2013-02-09 04:04:00,19.0,17.3,29.88,North,360,0.0,0.0,93,0.00,SCT,,0.00,0.0,WeatherDisplay:10.37,2013-02-09 03:04:00,
2013-02-09 04:09:00,19.0,17.3,29.88,NW,324,0.0,0.0,93,0.00,SCT,,0.00,0.0,WeatherDisplay:10.37,2013-02-09 03:09:00,
2013-02-09 04:14:00,19.0,17.3,29.88,NW,324,0.0,0.0,93,0.00,SCT,,0.00,0.0,WeatherDisplay:10.37,2013-02-09 03:14:00,
2013-02-09 04:19:00,18.9,17.2,29.88,NW,324,0.0,0.0,93,0.00,SCT,,0.00,0.0,WeatherDisplay:10.37,2013-02-09 03:19:00,
2013-02-09 04:24:00,18.9,17.2,29.88,NW,324,0.0,0.0,93,0.00,SCT,,0.00,0.0,WeatherDisplay:10.37,2013-02-09 03:24:00,
2013-02-09 04:29:00,18.9,17.2,29.88,NW,324,0.0,0.0,93,0.00,SCT,,0.00,0.0,WeatherDisplay:10.37,2013-02-09 03:29:00,
2013-02-09 04:34:00,18.9,17.2,29.88,NW,324,0.0,0.0,93,0.00,SCT,,0.00,0.0,WeatherDisplay:10.37,2013-02-09 03:34:00,
2013-02-09 04:40:00,18.8,17.1,29.88,NNW,331,0.0,0.0,93,0.00,SCT,,0.00,0.0,WeatherDisplay:10.37,2013-02-09 03:40:00,
2013-02-09 04:45:00,18.7,17.0,29.88,NW,324,0.0,0.0,93,0.00,SCT,,0.00,0.0,WeatherDisplay:10.37,2013-02-09 03:45:00,
2013-02-09 04:50:00,18.7,17.0,29.88,NW,324,0.0,0.0,93,0.00,SCT,,0.00,0.0,WeatherDisplay:10.37,2013-02-09 03:50:00,
2013-02-09 04:55:00,18.6,16.9,29.88,North,360,0.0,0.0,93,0.00,SCT,,0.00,0.0,WeatherDisplay:10.37,2013-02-09 03:55:00,
2013-02-09 05:00:00,18.7,17.0,29.88,NW,324,0.0,0.0,93,0.00,SCT,,0.00,0.0,WeatherDisplay:10.37,2013-02-09 04:00:00,
2013-02-09 05:05:00,18.7,17.0,29.88,NW,324,0.0,0.0,93,0.00,SCT,,0.00,0.0,WeatherDisplay:10.37,2013-02-09 04:05:00,
2013-02-09 05:10:00,18.7,17.0,29.88,NW,324,0.0,0.0,93,0.00,SCT,,0.00,0.0,WeatherDisplay:10.37,2013-02-09 04:10:00,
2013-02-09 05:15:00,18.7,17.0,29.88,NW,324,0.0,0.0,93,0.00,SCT,,0.00,0.0,WeatherDisplay:10.37,2013-02-09 04:15:00,
2013-02-09 05:21:00,18.8,17.1,29.88,NW,324,0.0,0.0,93,0.00,SCT,,0.00,0.0,WeatherDisplay:10.37,2013-02-09 04:21:00,
2013-02-09 05:26:00,18.8,17.1,29.88,North,360,0.0,0.0,93,0.00,SCT,,0.00,0.0,WeatherDisplay:10.37,2013-02-09 04:26:00,
2013-02-09 05:31:00,18.7,17.0,29.88,NW,324,0.0,0.0,93,0.00,SCT,,0.00,0.0,WeatherDisplay:10.37,2013-02-09 04:31:00,
2013-02-09 05:36:00,18.7,17.0,29.88,NW,324,0.0,0.0,93,0.00,SCT,,0.00,0.0,WeatherDisplay:10.37,2013-02-09 04:36:00,
2013-02-09 05:41:00,18.7,17.0,29.88,NW,324,0.0,0.0,93,0.00,SCT,,0.00,0.0,WeatherDisplay:10.37,2013-02-09 04:41:00,
2013-02-09 05:46:00,18.6,16.9,29.88,North,360,0.0,0.0,93,0.00,SCT,,0.00,0.0,WeatherDisplay:10.37,2013-02-09 04:46:00,
2013-02-09 05:51:00,18.5,16.8,29.88,NW,324,0.0,0.0,93,0.00,SCT,,0.00,0.0,WeatherDisplay:10.37,2013-02-09 04:51:00,
2013-02-09 05:56:00,18.5,16.8,29.88,NW,324,0.0,0.0,93,0.00,SCT,,0.00,0.0,WeatherDisplay:10.37,2013-02-09 04:56:00,
2013-02-09 06:00:00,18.4,16.7,29.88,NNW,327,0.0,0.0,93,0.00,SCT,,0.00,0.0,WeatherDisplay:10.37,2013-02-09 05:00:00,
2013-02-09 06:02:00,18.4,16.7,29.88,NW,324,0.0,0.0,93,0.00,SCT,,0.00,0.0,WeatherDisplay:10.37,2013-02-09 05:02:00,
2013-02-09 06:07:00,18.4,16.7,29.88,NW,324,0.0,0.0,93,0.00,SCT,,0.00,0.0,WeatherDisplay:10.37,2013-02-09 05:07:00,
2013-02-09 06:12:00,18.3,16.6,29.88,NW,324,0.0,0.0,93,0.00,SCT,,0.00,0.0,WeatherDisplay:10.37,2013-02-09 05:12:00,
2013-02-09 06:17:00,18.2,16.5,29.88,NW,324,0.0,0.0,93,0.00,SCT,,0.00,0.0,WeatherDisplay:10.37,2013-02-09 05:17:00,
2013-02-09 06:22:00,18.2,16.5,29.89,NW,324,0.0,0.0,93,0.00,SCT,,0.00,0.0,WeatherDisplay:10.37,2013-02-09 05:22:00,
2013-02-09 06:27:00,18.2,16.5,29.89,NW,324,0.0,0.0,93,0.00,SCT,,0.00,0.0,WeatherDisplay:10.37,2013-02-09 05:27:00,
2013-02-09 06:32:00,18.1,16.4,29.89,NW,324,0.0,0.0,93,0.00,SCT,,0.00,0.0,WeatherDisplay:10.37,2013-02-09 05:32:00,
2013-02-09 06:37:00,18.1,16.4,29.89,NW,324,0.0,0.0,93,0.00,SCT,,0.00,0.0,WeatherDisplay:10.37,2013-02-09 05:37:00,
2013-02-09 06:42:00,18.1,16.4,29.89,North,360,0.0,0.0,93,0.00,SCT,,0.00,0.0,WeatherDisplay:10.37,2013-02-09 05:42:00,
2013-02-09 06:47:00,18.0,16.3,29.89,NW,324,0.0,0.0,93,0.00,SCT,,0.00,0.0,WeatherDisplay:10.37,2013-02-09 05:47:00,
2013-02-09 06:52:00,18.0,16.3,29.89,North,360,0.0,0.0,93,0.00,SCT,,0.00,0.0,WeatherDisplay:10.37,2013-02-09 05:52:00,
2013-02-09 06:57:00,18.0,16.3,29.89,NW,324,0.0,0.0,93,0.00,SCT,,0.00,0.0,WeatherDisplay:10.37,2013-02-09 05:57:00,
2013-02-09 07:02:00,18.1,16.4,29.89,NW,324,0.0,0.0,93,0.00,SCT,,0.00,5.0,WeatherDisplay:10.37,2013-02-09 06:02:00,
2013-02-09 07:07:00,18.1,16.4,29.90,NW,324,0.0,0.0,93,0.00,SCT,,0.00,7.0,WeatherDisplay:10.37,2013-02-09 06:07:00,
2013-02-09 07:12:00,18.3,16.6,29.90,NW,324,0.0,0.0,93,0.00,SCT,,0.00,12.0,WeatherDisplay:10.37,2013-02-09 06:12:00,
2013-02-09 07:17:00,18.5,16.8,29.89,NW,324,0.0,0.0,93,0.00,SCT,,0.00,18.0,WeatherDisplay:10.37,2013-02-09 06:17:00,
2013-02-09 07:22:00,18.7,17.0,29.90,NW,324,0.0,0.0,93,0.00,SCT,,0.00,25.0,WeatherDisplay:10.37,2013-02-09 06:22:00,
2013-02-09 07:27:00,18.8,17.1,29.90,NW,324,0.0,0.0,93,0.00,SCT,,0.00,30.0,WeatherDisplay:10.37,2013-02-09 06:27:00,
2013-02-09 07:32:00,19.0,17.6,29.90,NW,324,0.0,0.0,94,0.00,SCT,,0.00,33.0,WeatherDisplay:10.37,2013-02-09 06:32:00,
2013-02-09 07:37:00,19.2,17.8,29.90,NW,324,0.0,0.0,94,0.00,SCT,,0.00,37.0,WeatherDisplay:10.37,2013-02-09 06:37:00,
2013-02-09 07:42:00,19.4,18.0,29.90,NW,324,0.0,0.0,94,0.00,SCT,,0.00,39.0,WeatherDisplay:10.37,2013-02-09 06:42:00,
2013-02-09 07:47:00,19.6,18.2,29.90,NW,324,0.0,0.0,94,0.00,SCT,,0.00,42.0,WeatherDisplay:10.37,2013-02-09 06:47:00,
2013-02-09 07:52:00,19.8,18.4,29.90,NW,324,0.0,0.0,94,0.00,SCT,,0.00,47.0,WeatherDisplay:10.37,2013-02-09 06:52:00,
2013-02-09 07:57:00,20.0,18.6,29.90,NW,324,0.0,0.0,94,0.00,SCT,,0.00,53.0,WeatherDisplay:10.37,2013-02-09 06:57:00,
2013-02-09 08:02:00,20.3,18.8,29.90,NW,324,0.0,0.0,94,0.00,SCT,,0.00,60.0,WeatherDisplay:10.37,2013-02-09 07:02:00,
2013-02-09 08:07:00,20.5,19.0,29.91,NW,324,0.0,0.0,94,0.00,SCT,,0.00,67.0,WeatherDisplay:10.37,2013-02-09 07:07:00,
2013-02-09 08:12:00,20.8,19.3,29.91,NW,324,0.0,0.0,94,0.00,SCT,,0.00,77.0,WeatherDisplay:10.37,2013-02-09 07:12:00,
2013-02-09 08:17:00,21.1,19.6,29.91,NW,324,0.0,0.0,94,0.00,SCT,,0.00,81.0,WeatherDisplay:10.37,2013-02-09 07:17:00,
2013-02-09 08:22:00,21.3,19.8,29.91,NW,324,0.0,0.0,94,0.00,SCT,,0.00,86.0,WeatherDisplay:10.37,2013-02-09 07:22:00,
2013-02-09 08:27:00,21.5,20.0,29.91,NW,324,0.0,0.0,94,0.00,SCT,,0.00,95.0,WeatherDisplay:10.37,2013-02-09 07:27:00,
2013-02-09 08:32:00,21.7,20.2,29.91,NW,324,0.0,0.0,94,0.00,SCT,,0.00,102.0,WeatherDisplay:10.37,2013-02-09 07:32:00,
2013-02-09 08:37:00,22.0,20.5,29.91,NW,324,0.0,0.0,94,0.00,FEW,,0.00,109.0,WeatherDisplay:10.37,2013-02-09 07:37:00,
2013-02-09 08:42:00,22.2,20.7,29.91,North,360,0.0,0.0,94,0.00,FEW,,0.00,118.0,WeatherDisplay:10.37,2013-02-09 07:42:00,
2013-02-09 08:47:00,22.5,21.0,29.91,NW,324,0.0,0.0,94,0.00,FEW,,0.00,123.0,WeatherDisplay:10.37,2013-02-09 07:47:00,
2013-02-09 08:52:00,22.8,21.3,29.91,NW,324,0.0,0.0,94,0.00,FEW,,0.00,125.0,WeatherDisplay:10.37,2013-02-09 07:52:00,
2013-02-09 08:57:00,23.2,21.7,29.91,NW,324,0.0,0.0,94,0.00,FEW,,0.00,128.0,WeatherDisplay:10.37,2013-02-09 07:57:00,
2013-02-09 09:02:00,23.6,22.4,29.91,NW,324,0.0,0.0,95,0.00,SCT,,0.00,134.0,WeatherDisplay:10.37,2013-02-09 08:02:00,
2013-02-09 09:07:00,24.0,22.8,29.91,NW,324,0.0,0.0,95,0.00,SCT,,0.00,134.0,WeatherDisplay:10.37,2013-02-09 08:07:00,
2013-02-09 09:12:00,24.4,23.2,29.92,NW,324,0.0,0.0,95,0.00,SCT,,0.00,137.0,WeatherDisplay:10.37,2013-02-09 08:12:00,
2013-02-09 09:17:00,24.8,23.6,29.92,NW,324,0.0,0.0,95,0.00,SCT,,0.00,142.0,WeatherDisplay:10.37,2013-02-09 08:17:00,
2013-02-09 09:22:00,25.2,24.0,29.91,NW,324,0.0,0.0,95,0.00,SCT,,0.00,146.0,WeatherDisplay:10.37,2013-02-09 08:22:00,
2013-02-09 09:27:00,25.7,24.5,29.92,NW,324,0.0,0.0,95,0.00,SCT,,0.00,153.0,WeatherDisplay:10.37,2013-02-09 08:27:00,
2013-02-09 09:32:00,26.1,24.9,29.91,NW,324,0.0,1.1,95,0.00,SCT,,0.00,151.0,WeatherDisplay:10.37,2013-02-09 08:32:00,
2013-02-09 09:37:00,26.3,25.1,29.91,NW,324,0.7,2.3,95,0.00,SCT,,0.00,149.0,WeatherDisplay:10.37,2013-02-09 08:37:00,
2013-02-09 09:42:00,26.6,25.1,29.91,NW,324,0.4,2.3,94,0.00,SCT,,0.00,155.0,WeatherDisplay:10.37,2013-02-09 08:42:00,
2013-02-09 09:47:00,26.9,25.4,29.91,NW,324,0.0,2.3,94,0.00,SCT,,0.00,158.0,WeatherDisplay:10.37,2013-02-09 08:47:00,
2013-02-09 09:52:00,27.2,25.7,29.91,North,360,0.6,2.0,94,0.00,SCT,,0.00,163.0,WeatherDisplay:10.37,2013-02-09 08:52:00,
2013-02-09 09:57:00,27.5,26.0,29.91,NW,324,0.9,3.5,94,0.00,SCT,,0.00,167.0,WeatherDisplay:10.37,2013-02-09 08:57:00,
2013-02-09 10:02:00,27.8,26.3,29.91,NW,324,0.2,1.1,94,0.00,SCT,,0.00,162.0,WeatherDisplay:10.37,2013-02-09 09:02:00,
2013-02-09 10:07:00,28.1,26.3,29.91,NW,324,0.3,2.3,93,0.00,SCT,,0.00,148.0,WeatherDisplay:10.37,2013-02-09 09:07:00,
2013-02-09 10:12:00,28.4,26.6,29.91,NW,324,0.8,3.5,93,0.00,SCT,,0.00,139.0,WeatherDisplay:10.37,2013-02-09 09:12:00,
2013-02-09 10:17:00,28.6,26.6,29.91,NW,324,2.1,3.5,92,0.00,SCT,,0.00,146.0,WeatherDisplay:10.37,2013-02-09 09:17:00,
2013-02-09 10:22:00,28.8,26.8,29.91,NW,324,1.6,4.0,92,0.00,SCT,,0.00,165.0,WeatherDisplay:10.37,2013-02-09 09:22:00,
2013-02-09 10:27:00,29.0,26.7,29.91,NW,324,0.8,3.5,91,0.00,SCT,,0.00,181.0,WeatherDisplay:10.37,2013-02-09 09:27:00,
2013-02-09 10:32:00,29.2,26.6,29.92,NW,324,0.2,2.3,90,0.00,SCT,,0.00,188.0,WeatherDisplay:10.37,2013-02-09 09:32:00,
2013-02-09 10:37:00,29.4,26.6,29.92,NW,324,1.6,2.3,89,0.00,SCT,,0.00,195.0,WeatherDisplay:10.37,2013-02-09 09:37:00,
2013-02-09 10:42:00,29.7,26.9,29.92,NW,324,1.3,3.5,89,0.00,SCT,,0.00,186.0,WeatherDisplay:10.37,2013-02-09 09:42:00,
2013-02-09 10:47:00,30.0,26.9,29.92,NW,324,1.3,3.0,88,0.00,SCT,,0.00,178.0,WeatherDisplay:10.37,2013-02-09 09:47:00,
2013-02-09 10:52:00,30.2,26.8,29.92,NW,324,1.0,2.3,87,0.00,SCT,,0.00,179.0,WeatherDisplay:10.37,2013-02-09 09:52:00,
2013-02-09 10:57:00,30.4,27.0,29.92,NW,324,0.0,1.1,87,0.00,SCT,,0.00,197.0,WeatherDisplay:10.37,2013-02-09 09:57:00,
2013-02-09 11:02:00,30.7,27.0,29.92,NW,324,0.7,2.3,86,0.00,SCT,,0.00,213.0,WeatherDisplay:10.37,2013-02-09 10:02:00,
2013-02-09 11:07:00,30.9,26.9,29.92,NW,324,0.3,1.1,85,0.00,SCT,,0.00,232.0,WeatherDisplay:10.37,2013-02-09 10:07:00,
2013-02-09 11:12:00,31.3,27.0,29.92,NW,324,0.6,2.3,84,0.00,SCT,,0.00,251.0,WeatherDisplay:10.37,2013-02-09 10:12:00,
2013-02-09 11:17:00,31.6,27.0,29.91,NW,324,0.9,3.5,83,0.00,FEW,,0.00,257.0,WeatherDisplay:10.37,2013-02-09 10:17:00,
2013-02-09 11:22:00,31.9,26.7,29.91,North,360,0.6,3.5,81,0.00,FEW,,0.00,248.0,WeatherDisplay:10.37,2013-02-09 10:22:00,
2013-02-09 11:27:00,32.2,27.0,29.91,NE,47,1.7,4.0,81,0.00,FEW,,0.00,236.0,WeatherDisplay:10.37,2013-02-09 10:27:00,
2013-02-09 11:32:00,32.5,27.3,29.91,NNE,31,2.0,4.0,81,0.00,SCT,,0.00,223.0,WeatherDisplay:10.37,2013-02-09 10:32:00,
2013-02-09 11:37:00,32.6,27.1,29.91,North,9,0.5,3.5,80,0.00,SCT,,0.00,214.0,WeatherDisplay:10.37,2013-02-09 10:37:00,
2013-02-09 11:43:00,32.7,26.9,29.91,WNW,289,2.0,4.0,79,0.00,SCT,,0.00,204.0,WeatherDisplay:10.37,2013-02-09 10:43:00,
2013-02-09 11:49:00,32.7,26.9,29.91,NNW,344,2.6,4.0,79,0.00,SCT,,0.00,221.0,WeatherDisplay:10.37,2013-02-09 10:49:00,
2013-02-09 11:54:00,32.8,27.0,29.91,NNW,329,2.1,3.5,79,0.00,SCT,,0.00,218.0,WeatherDisplay:10.37,2013-02-09 10:54:00,
2013-02-09 11:59:00,32.9,27.1,29.91,NW,311,2.8,4.0,79,0.00,SCT,,0.00,216.0,WeatherDisplay:10.37,2013-02-09 10:59:00,
2013-02-09 12:04:00,32.9,26.8,29.91,WNW,296,1.1,4.0,78,0.00,SCT,,0.00,218.0,WeatherDisplay:10.37,2013-02-09 11:04:00,
2013-02-09 12:09:00,33.0,26.9,29.91,WNW,302,0.3,1.1,78,0.00,SCT,,0.00,225.0,WeatherDisplay:10.37,2013-02-09 11:09:00,
2013-02-09 12:15:00,33.1,26.7,29.91,WNW,302,2.0,4.0,77,0.00,SCT,,0.00,230.0,WeatherDisplay:10.37,2013-02-09 11:15:00,
2013-02-09 12:20:00,33.1,26.4,29.91,WNW,303,2.0,4.0,76,0.00,SCT,,0.00,225.0,WeatherDisplay:10.37,2013-02-09 11:20:00,
2013-02-09 12:25:00,33.3,26.5,29.91,NW,317,2.3,3.5,76,0.00,SCT,,0.00,218.0,WeatherDisplay:10.37,2013-02-09 11:25:00,
2013-02-09 12:30:00,33.5,26.4,29.91,NW,322,1.2,6.0,75,0.00,SCT,,0.00,213.0,WeatherDisplay:10.37,2013-02-09 11:30:00,
2013-02-09 12:35:00,33.5,26.1,29.91,NW,318,0.3,2.3,74,0.00,SCT,,0.00,211.0,WeatherDisplay:10.37,2013-02-09 11:35:00,
2013-02-09 12:40:00,33.6,26.2,29.91,North,5,2.1,4.6,74,0.00,SCT,,0.00,207.0,WeatherDisplay:10.37,2013-02-09 11:40:00,
2013-02-09 12:45:00,33.6,26.5,29.91,NW,326,0.3,5.0,75,0.00,SCT,,0.00,206.0,WeatherDisplay:10.37,2013-02-09 11:45:00,
2013-02-09 12:50:00,33.6,26.2,29.91,NNW,334,1.5,3.5,74,0.00,SCT,,0.00,207.0,WeatherDisplay:10.37,2013-02-09 11:50:00,
2013-02-09 12:55:00,33.6,26.2,29.91,North,360,1.8,4.0,74,0.00,SCT,,0.00,218.0,WeatherDisplay:10.37,2013-02-09 11:55:00,
2013-02-09 13:00:00,33.7,26.6,29.91,North,5,1.0,4.0,75,0.00,SCT,,0.00,216.0,WeatherDisplay:10.37,2013-02-09 12:00:00,
2013-02-09 13:05:00,33.8,26.7,29.91,NNW,328,2.0,4.0,75,0.00,SCT,,0.00,209.0,WeatherDisplay:10.37,2013-02-09 12:05:00,
2013-02-09 13:10:00,33.9,26.8,29.91,NNW,331,0.7,3.5,75,0.00,SCT,,0.00,213.0,WeatherDisplay:10.37,2013-02-09 12:10:00,
2013-02-09 13:15:00,33.9,27.1,29.91,NW,319,3.1,5.0,76,0.00,SCT,,0.00,214.0,WeatherDisplay:10.37,2013-02-09 12:15:00,
2013-02-09 13:20:00,33.9,26.8,29.91,NNW,334,2.0,3.5,75,0.00,SCT,,0.00,207.0,WeatherDisplay:10.37,2013-02-09 12:20:00,
2013-02-09 13:25:00,33.8,26.7,29.91,NNW,333,1.5,5.0,75,0.00,SCT,,0.00,199.0,WeatherDisplay:10.37,2013-02-09 12:25:00,
2013-02-09 13:30:00,33.8,26.7,29.91,WNW,301,1.2,3.5,75,0.00,SCT,,0.00,188.0,WeatherDisplay:10.37,2013-02-09 12:30:00,
2013-02-09 13:35:00,33.8,27.0,29.91,NW,306,2.8,4.6,76,0.00,SCT,,0.00,181.0,WeatherDisplay:10.37,2013-02-09 12:35:00,
2013-02-09 13:40:00,33.7,26.9,29.91,NNW,333,2.6,5.8,76,0.00,SCT,,0.00,181.0,WeatherDisplay:10.37,2013-02-09 12:40:00,
2013-02-09 13:45:00,33.8,27.0,29.91,NNE,17,1.7,4.6,76,0.00,SCT,,0.00,165.0,WeatherDisplay:10.37,2013-02-09 12:45:00,
2013-02-09 13:50:00,33.7,27.3,29.91,North,360,1.3,3.5,77,0.00,SCT,,0.00,158.0,WeatherDisplay:10.37,2013-02-09 12:50:00,
2013-02-09 13:55:00,33.6,27.2,29.91,North,360,1.8,3.5,77,0.00,SCT,,0.00,153.0,WeatherDisplay:10.37,2013-02-09 12:55:00,
2013-02-09 14:00:00,33.5,27.1,29.91,NW,319,1.9,4.0,77,0.00,SCT,,0.00,139.0,WeatherDisplay:10.37,2013-02-09 13:00:00,
2013-02-09 14:05:00,33.4,27.3,29.91,NW,313,2.5,5.0,78,0.00,SCT,,0.00,111.0,WeatherDisplay:10.37,2013-02-09 13:05:00,
2013-02-09 14:10:00,33.3,27.5,29.91,NNE,14,1.0,4.6,79,0.00,BKN,,0.00,100.0,WeatherDisplay:10.37,2013-02-09 13:10:00,
2013-02-09 14:15:00,33.2,27.4,29.91,NNE,17,4.3,5.0,79,0.00,BKN,,0.00,97.0,WeatherDisplay:10.37,2013-02-09 13:15:00,
2013-02-09 14:20:00,33.1,27.6,29.91,NNW,348,2.6,4.0,80,0.00,BKN,,0.00,95.0,WeatherDisplay:10.37,2013-02-09 13:20:00,
2013-02-09 14:25:00,32.9,27.4,29.91,NE,49,3.6,6.0,80,0.00,BKN,,0.00,93.0,WeatherDisplay:10.37,2013-02-09 13:25:00,
2013-02-09 14:30:00,32.6,27.4,29.91,NNE,16,3.2,5.0,81,0.00,BKN,,0.00,88.0,WeatherDisplay:10.37,2013-02-09 13:30:00,
2013-02-09 14:35:00,32.4,27.5,29.91,North,355,2.9,5.0,82,0.00,BKN,,0.00,91.0,WeatherDisplay:10.37,2013-02-09 13:35:00,
2013-02-09 14:40:00,32.4,27.8,29.91,North,360,2.4,5.0,83,0.00,BKN,,0.00,109.0,WeatherDisplay:10.37,2013-02-09 13:40:00,
2013-02-09 14:45:00,32.2,27.9,29.91,North,355,2.2,4.6,84,0.00,SCT,,0.00,104.0,WeatherDisplay:10.37,2013-02-09 13:45:00,
2013-02-09 14:50:00,32.2,28.2,29.92,NNW,344,3.5,6.0,85,0.00,SCT,,0.00,100.0,WeatherDisplay:10.37,2013-02-09 13:50:00,
2013-02-09 14:55:00,32.1,28.1,29.91,North,5,2.3,4.6,85,0.00,SCT,,0.00,76.0,WeatherDisplay:10.37,2013-02-09 13:55:00,
2013-02-09 15:00:00,32.0,28.3,29.91,NNE,20,2.4,3.5,86,0.00,BKN,,0.00,63.0,WeatherDisplay:10.37,2013-02-09 14:00:00,
2013-02-09 15:05:00,31.9,28.2,29.91,NNE,17,1.5,3.5,86,0.00,BKN,,0.00,74.0,WeatherDisplay:10.37,2013-02-09 14:05:00,
2013-02-09 15:10:00,31.8,28.1,29.92,North,5,2.4,5.0,86,0.00,BKN,,0.00,77.0,WeatherDisplay:10.37,2013-02-09 14:10:00,
2013-02-09 15:15:00,31.7,28.3,29.91,NW,321,0.8,3.5,87,0.00,SCT,,0.00,79.0,WeatherDisplay:10.37,2013-02-09 14:15:00,
2013-02-09 15:20:00,31.6,28.2,29.91,North,360,1.4,4.6,87,0.00,SCT,,0.00,81.0,WeatherDisplay:10.37,2013-02-09 14:20:00,
2013-02-09 15:25:00,31.6,28.2,29.91,NW,325,1.3,3.5,87,0.00,SCT,,0.00,74.0,WeatherDisplay:10.37,2013-02-09 14:25:00,
2013-02-09 15:30:00,31.6,28.5,29.92,WNW,300,2.4,4.0,88,0.00,SCT,,0.00,65.0,WeatherDisplay:10.37,2013-02-09 14:30:00,
2013-02-09 15:35:00,31.5,28.4,29.92,NW,313,0.1,3.5,88,0.00,SCT,,0.00,60.0,WeatherDisplay:10.37,2013-02-09 14:35:00,
2013-02-09 15:40:00,31.5,28.4,29.91,NW,313,1.1,3.5,88,0.00,SCT,,0.00,53.0,WeatherDisplay:10.37,2013-02-09 14:40:00,
2013-02-09 15:45:00,31.5,28.6,29.92,NW,318,0.1,2.3,89,0.00,SCT,,0.00,46.0,WeatherDisplay:10.37,2013-02-09 14:45:00,
2013-02-09 15:50:00,31.4,28.5,29.91,NW,318,1.3,3.5,89,0.00,BKN,,0.00,40.0,WeatherDisplay:10.37,2013-02-09 14:50:00,
2013-02-09 15:55:00,31.4,28.5,29.92,NW,318,0.0,1.1,89,0.00,BKN,,0.00,39.0,WeatherDisplay:10.37,2013-02-09 14:55:00,
2013-02-09 16:00:00,31.4,28.5,29.92,NW,318,1.0,2.3,89,0.00,BKN,,0.00,33.0,WeatherDisplay:10.37,2013-02-09 15:00:00,
2013-02-09 16:05:00,31.4,28.5,29.92,NNW,340,2.2,4.0,89,0.00,BKN,,0.00,26.0,WeatherDisplay:10.37,2013-02-09 15:05:00,
2013-02-09 16:10:00,31.3,28.4,29.92,NW,321,1.9,3.5,89,0.00,BKN,,0.00,21.0,WeatherDisplay:10.37,2013-02-09 15:10:00,
2013-02-09 16:15:00,31.3,28.4,29.92,NW,325,0.1,3.5,89,0.00,BKN,,0.00,18.0,WeatherDisplay:10.37,2013-02-09 15:15:00,
2013-02-09 16:20:00,31.2,28.3,29.92,North,5,1.0,3.5,89,0.00,BKN,,0.00,14.0,WeatherDisplay:10.37,2013-02-09 15:20:00,
2013-02-09 16:25:00,31.1,28.2,29.92,North,350,0.0,1.1,89,0.00,BKN,,0.00,11.0,WeatherDisplay:10.37,2013-02-09 15:25:00,
2013-02-09 16:30:00,31.1,28.2,29.92,NW,317,1.9,4.0,89,0.00,BKN,,0.00,9.0,WeatherDisplay:10.37,2013-02-09 15:30:00,
2013-02-09 16:35:00,31.0,28.4,29.92,NW,321,1.2,3.5,90,0.00,BKN,,0.00,7.0,WeatherDisplay:10.37,2013-02-09 15:35:00,
2013-02-09 16:41:00,31.0,28.4,29.92,NNW,327,1.0,3.5,90,0.00,BKN,,0.00,5.0,WeatherDisplay:10.37,2013-02-09 15:41:00,
2013-02-09 16:46:00,30.9,28.3,29.92,NNW,327,0.6,2.3,90,0.00,BKN,,0.00,0.0,WeatherDisplay:10.37,2013-02-09 15:46:00,
2013-02-09 16:51:00,30.9,28.3,29.92,NW,309,0.5,3.5,90,0.00,BKN,,0.00,0.0,WeatherDisplay:10.37,2013-02-09 15:51:00,
2013-02-09 16:56:00,30.8,28.2,29.92,NW,317,1.5,3.5,90,0.00,BKN,,0.00,0.0,WeatherDisplay:10.37,2013-02-09 15:56:00,
2013-02-09 17:01:00,30.8,28.2,29.92,NW,311,2.6,4.0,90,0.00,BKN,,0.00,0.0,WeatherDisplay:10.37,2013-02-09 16:01:00,
2013-02-09 17:06:00,30.8,28.2,29.92,NW,320,2.2,3.5,90,0.00,BKN,,0.00,0.0,WeatherDisplay:10.37,2013-02-09 16:06:00,
2013-02-09 17:11:00,30.7,28.1,29.92,NNW,337,0.2,3.0,90,0.00,BKN,,0.00,0.0,WeatherDisplay:10.37,2013-02-09 16:11:00,
2013-02-09 17:16:00,30.6,28.0,29.93,NNW,331,0.9,3.0,90,0.00,BKN,,0.00,0.0,WeatherDisplay:10.37,2013-02-09 16:16:00,
2013-02-09 17:21:00,30.6,28.3,29.93,NW,308,1.2,3.5,91,0.00,BKN,,0.00,0.0,WeatherDisplay:10.37,2013-02-09 16:21:00,
2013-02-09 17:26:00,30.5,28.2,29.93,NW,306,1.2,3.0,91,0.00,BKN,,0.00,0.0,WeatherDisplay:10.37,2013-02-09 16:26:00,
2013-02-09 17:31:00,30.5,28.2,29.93,NW,316,0.8,2.3,91,0.00,BKN,,0.00,0.0,WeatherDisplay:10.37,2013-02-09 16:31:00,
2013-02-09 17:36:00,30.4,28.1,29.93,NNW,328,2.6,5.8,91,0.00,BKN,,0.00,0.0,WeatherDisplay:10.37,2013-02-09 16:36:00,
2013-02-09 17:41:00,30.4,28.1,29.93,NW,322,1.2,3.5,91,0.00,BKN,,0.00,0.0,WeatherDisplay:10.37,2013-02-09 16:41:00,
2013-02-09 17:46:00,30.3,28.3,29.93,NNW,335,0.1,3.5,92,0.00,BKN,,0.00,0.0,WeatherDisplay:10.37,2013-02-09 16:46:00,
2013-02-09 17:51:00,30.3,28.3,29.93,North,360,2.7,5.0,92,0.01,RA,,0.01,0.0,WeatherDisplay:10.37,2013-02-09 16:51:00,
2013-02-09 17:56:00,30.2,28.2,29.93,NW,323,0.2,3.0,92,0.01,RA,,0.01,0.0,WeatherDisplay:10.37,2013-02-09 16:56:00,
2013-02-09 18:01:00,30.1,28.1,29.93,NW,306,0.6,4.0,92,0.01,BKN,,0.01,0.0,WeatherDisplay:10.37,2013-02-09 17:01:00,
2013-02-09 18:06:00,30.0,28.0,29.93,North,360,0.6,4.0,92,0.01,BKN,,0.01,0.0,WeatherDisplay:10.37,2013-02-09 17:06:00,
2013-02-09 18:11:00,29.9,27.9,29.93,North,360,0.7,3.5,92,0.01,BKN,,0.01,0.0,WeatherDisplay:10.37,2013-02-09 17:11:00,
2013-02-09 18:16:00,29.9,27.9,29.93,NNW,327,1.7,4.6,92,0.01,BKN,,0.01,0.0,WeatherDisplay:10.37,2013-02-09 17:16:00,
2013-02-09 18:21:00,29.8,27.8,29.94,NNW,327,0.4,3.5,92,0.01,BKN,,0.01,0.0,WeatherDisplay:10.37,2013-02-09 17:21:00,
2013-02-09 18:26:00,29.8,27.8,29.94,NW,325,2.8,4.0,92,0.01,BKN,,0.01,0.0,WeatherDisplay:10.37,2013-02-09 17:26:00,
2013-02-09 18:31:00,29.7,27.7,29.94,NW,321,0.8,2.3,92,0.01,BKN,,0.01,0.0,WeatherDisplay:10.37,2013-02-09 17:31:00,
2013-02-09 18:36:00,29.6,27.8,29.94,NW,324,2.6,4.0,93,0.01,BKN,,0.01,0.0,WeatherDisplay:10.37,2013-02-09 17:36:00,
2013-02-09 18:41:00,29.6,27.8,29.93,NW,315,1.1,4.0,93,0.01,BKN,,0.01,0.0,WeatherDisplay:10.37,2013-02-09 17:41:00,
2013-02-09 18:46:00,29.6,27.8,29.94,NW,321,1.7,4.0,93,0.02,RA,,0.02,0.0,WeatherDisplay:10.37,2013-02-09 17:46:00,
2013-02-09 18:51:00,29.6,27.8,29.94,NW,315,1.7,3.5,93,0.01,RA,,0.02,0.0,WeatherDisplay:10.37,2013-02-09 17:51:00,
2013-02-09 18:56:00,29.5,27.7,29.93,NNW,335,2.0,3.5,93,0.01,BKN,,0.02,0.0,WeatherDisplay:10.37,2013-02-09 17:56:00,
2013-02-09 19:01:00,29.5,27.7,29.93,North,5,0.1,3.5,93,0.01,BKN,,0.02,0.0,WeatherDisplay:10.37,2013-02-09 18:01:00,
2013-02-09 19:06:00,29.5,27.7,29.93,NNW,329,1.2,4.0,93,0.01,BKN,,0.02,0.0,WeatherDisplay:10.37,2013-02-09 18:06:00,
2013-02-09 19:11:00,29.5,27.7,29.93,NNW,344,2.1,5.0,93,0.01,BKN,,0.02,0.0,WeatherDisplay:10.37,2013-02-09 18:11:00,
2013-02-09 19:16:00,29.5,27.7,29.94,NNW,335,2.0,5.8,93,0.01,BKN,,0.02,0.0,WeatherDisplay:10.37,2013-02-09 18:16:00,
2013-02-09 19:21:00,29.4,27.6,29.94,NW,324,2.3,4.0,93,0.01,BKN,,0.02,0.0,WeatherDisplay:10.37,2013-02-09 18:21:00,
2013-02-09 19:26:00,29.4,27.6,29.94,North,9,1.0,3.5,93,0.01,BKN,,0.02,0.0,WeatherDisplay:10.37,2013-02-09 18:26:00,
2013-02-09 19:31:00,29.3,27.5,29.94,NW,306,1.5,3.5,93,0.02,RA,,0.02,0.0,WeatherDisplay:10.37,2013-02-09 18:31:00,
2013-02-09 19:36:00,29.3,27.5,29.94,North,350,0.0,3.5,93,0.02,RA,,0.02,0.0,WeatherDisplay:10.37,2013-02-09 18:36:00,
2013-02-09 19:41:00,29.3,27.5,29.94,NNW,338,0.1,3.5,93,0.02,BKN,,0.02,0.0,WeatherDisplay:10.37,2013-02-09 18:41:00,
2013-02-09 19:46:00,29.3,27.5,29.94,NNE,15,0.9,4.6,93,0.01,BKN,,0.02,0.0,WeatherDisplay:10.37,2013-02-09 18:46:00,
2013-02-09 19:51:00,29.2,27.4,29.94,NNW,340,2.6,4.0,93,0.01,BKN,,0.02,0.0,WeatherDisplay:10.37,2013-02-09 18:51:00,
2013-02-09 19:56:00,29.2,27.7,29.94,WNW,299,0.3,3.0,94,0.01,BKN,,0.02,0.0,WeatherDisplay:10.37,2013-02-09 18:56:00,
2013-02-09 20:01:00,29.1,27.6,29.93,NNE,19,0.8,3.5,94,0.01,BKN,,0.02,0.0,WeatherDisplay:10.37,2013-02-09 19:01:00,
2013-02-09 20:06:00,29.1,27.3,29.94,WNW,300,1.6,3.5,93,0.01,BKN,,0.02,0.0,WeatherDisplay:10.37,2013-02-09 19:06:00,
2013-02-09 20:11:00,29.0,27.2,29.94,WNW,290,0.7,4.0,93,0.01,BKN,,0.02,0.0,WeatherDisplay:10.37,2013-02-09 19:11:00,
2013-02-09 20:16:00,29.0,27.5,29.93,NNW,332,1.8,4.6,94,0.01,BKN,,0.02,0.0,WeatherDisplay:10.37,2013-02-09 19:16:00,
2013-02-09 20:21:00,29.0,27.5,29.93,NW,326,0.3,2.3,94,0.01,BKN,,0.02,0.0,WeatherDisplay:10.37,2013-02-09 19:21:00,
2013-02-09 20:26:00,29.0,27.5,29.93,North,360,0.8,4.0,94,0.01,BKN,,0.02,0.0,WeatherDisplay:10.37,2013-02-09 19:26:00,
2013-02-09 20:31:00,29.0,27.5,29.93,North,9,2.5,4.0,94,0.00,BKN,,0.02,0.0,WeatherDisplay:10.37,2013-02-09 19:31:00,
2013-02-09 20:36:00,29.0,27.5,29.93,North,5,2.2,4.6,94,0.00,BKN,,0.02,0.0,WeatherDisplay:10.37,2013-02-09 19:36:00,
2013-02-09 20:41:00,28.9,27.4,29.93,North,360,0.1,2.3,94,0.00,BKN,,0.02,0.0,WeatherDisplay:10.37,2013-02-09 19:41:00,
2013-02-09 20:46:00,28.9,27.4,29.93,NW,324,1.3,3.5,94,0.00,BKN,,0.02,0.0,WeatherDisplay:10.37,2013-02-09 19:46:00,
2013-02-09 20:51:00,28.9,27.4,29.93,NW,324,1.5,3.5,94,0.00,BKN,,0.02,0.0,WeatherDisplay:10.37,2013-02-09 19:51:00,
2013-02-09 20:56:00,28.9,27.4,29.93,North,351,1.1,3.5,94,0.00,BKN,,0.02,0.0,WeatherDisplay:10.37,2013-02-09 19:56:00,
2013-02-09 21:01:00,29.0,27.5,29.93,North,360,1.0,2.3,94,0.00,BKN,,0.02,0.0,WeatherDisplay:10.37,2013-02-09 20:01:00,
2013-02-09 21:06:00,29.0,27.5,29.93,North,360,2.8,5.0,94,0.00,BKN,,0.02,0.0,WeatherDisplay:10.37,2013-02-09 20:06:00,
2013-02-09 21:11:00,29.0,27.5,29.92,North,350,3.4,4.0,94,0.00,BKN,,0.02,0.0,WeatherDisplay:10.37,2013-02-09 20:11:00,
2013-02-09 21:16:00,29.0,27.5,29.92,NE,55,3.2,6.9,94,0.00,BKN,,0.02,0.0,WeatherDisplay:10.37,2013-02-09 20:16:00,
2013-02-09 21:21:00,28.9,27.4,29.92,North,360,1.3,3.5,94,0.00,BKN,,0.02,0.0,WeatherDisplay:10.37,2013-02-09 20:21:00,
2013-02-09 21:26:00,28.8,27.3,29.92,NNE,12,2.5,4.6,94,0.00,BKN,,0.02,0.0,WeatherDisplay:10.37,2013-02-09 20:26:00,
2013-02-09 21:31:00,28.7,27.2,29.92,North,355,2.2,3.5,94,0.00,BKN,,0.02,0.0,WeatherDisplay:10.37,2013-02-09 20:31:00,
2013-02-09 21:36:00,28.6,27.1,29.91,North,355,2.3,3.5,94,0.00,BKN,,0.02,0.0,WeatherDisplay:10.37,2013-02-09 20:36:00,
2013-02-09 21:41:00,28.6,27.1,29.91,North,355,1.4,3.5,94,0.00,BKN,,0.02,0.0,WeatherDisplay:10.37,2013-02-09 20:41:00,
2013-02-09 21:46:00,28.5,27.0,29.91,NNE,14,1.0,3.5,94,0.00,BKN,,0.02,0.0,WeatherDisplay:10.37,2013-02-09 20:46:00,
2013-02-09 21:51:00,28.4,26.9,29.91,North,5,0.1,1.1,94,0.00,BKN,,0.02,0.0,WeatherDisplay:10.37,2013-02-09 20:51:00,
2013-02-09 21:56:00,28.2,26.7,29.91,North,5,0.0,1.1,94,0.00,BKN,,0.02,0.0,WeatherDisplay:10.37,2013-02-09 20:56:00,
2013-02-09 22:01:00,28.1,26.6,29.91,North,5,0.0,2.3,94,0.00,BKN,,0.02,0.0,WeatherDisplay:10.37,2013-02-09 21:01:00,
2013-02-09 22:06:00,28.0,26.5,29.91,North,5,0.0,1.1,94,0.00,BKN,,0.02,0.0,WeatherDisplay:10.37,2013-02-09 21:06:00,
2013-02-09 22:11:00,27.9,26.4,29.91,North,5,0.1,1.1,94,0.00,BKN,,0.02,0.0,WeatherDisplay:10.37,2013-02-09 21:11:00,
2013-02-09 22:16:00,27.7,26.2,29.92,North,5,0.0,0.0,94,0.00,BKN,,0.02,0.0,WeatherDisplay:10.37,2013-02-09 21:16:00,
2013-02-09 22:21:00,27.6,26.1,29.92,North,5,0.0,0.0,94,0.00,BKN,,0.02,0.0,WeatherDisplay:10.37,2013-02-09 21:21:00,
2013-02-09 22:26:00,27.4,25.9,29.92,North,5,0.0,0.0,94,0.00,BKN,,0.02,0.0,WeatherDisplay:10.37,2013-02-09 21:26:00,
2013-02-09 22:31:00,27.2,25.4,29.92,North,5,0.0,0.0,93,0.00,BKN,,0.02,0.0,WeatherDisplay:10.37,2013-02-09 21:31:00,
2013-02-09 22:36:00,27.0,25.2,29.92,North,5,0.0,0.0,93,0.00,BKN,,0.02,0.0,WeatherDisplay:10.37,2013-02-09 21:36:00,
2013-02-09 22:41:00,26.8,25.0,29.92,North,5,0.0,0.0,93,0.00,BKN,,0.02,0.0,WeatherDisplay:10.37,2013-02-09 21:41:00,
2013-02-09 22:46:00,26.6,24.8,29.92,North,5,0.0,0.0,93,0.00,BKN,,0.02,0.0,WeatherDisplay:10.37,2013-02-09 21:46:00,
2013-02-09 22:51:00,26.5,24.8,29.92,North,5,0.0,0.0,93,0.00,BKN,,0.02,0.0,WeatherDisplay:10.37,2013-02-09 21:51:00,
2013-02-09 22:56:00,26.5,25.0,29.93,North,5,0.0,0.0,94,0.00,BKN,,0.02,0.0,WeatherDisplay:10.37,2013-02-09 21:56:00,
2013-02-09 23:01:00,26.5,25.0,29.93,North,5,0.0,0.0,94,0.00,BKN,,0.02,0.0,WeatherDisplay:10.37,2013-02-09 22:01:00,
2013-02-09 23:06:00,26.5,25.0,29.93,North,5,0.0,0.0,94,0.00,BKN,,0.02,0.0,WeatherDisplay:10.37,2013-02-09 22:06:00,
2013-02-09 23:11:00,26.4,24.9,29.93,North,5,0.0,0.0,94,0.00,BKN,,0.02,0.0,WeatherDisplay:10.37,2013-02-09 22:11:00,
2013-02-09 23:16:00,26.3,24.8,29.93,North,5,0.0,0.0,94,0.00,BKN,,0.02,0.0,WeatherDisplay:10.37,2013-02-09 22:16:00,
2013-02-09 23:21:00,26.2,24.7,29.93,North,5,0.0,0.0,94,0.00,BKN,,0.02,0.0,WeatherDisplay:10.37,2013-02-09 22:21:00,
2013-02-09 23:26:00,26.2,24.7,29.93,North,5,0.0,0.0,94,0.00,BKN,,0.02,0.0,WeatherDisplay:10.37,2013-02-09 22:26:00,
2013-02-09 23:31:00,26.2,24.7,29.93,North,5,0.0,0.0,94,0.00,BKN,,0.02,0.0,WeatherDisplay:10.37,2013-02-09 22:31:00,
2013-02-09 23:36:00,26.3,24.8,29.93,North,5,0.0,0.0,94,0.00,BKN,,0.02,0.0,WeatherDisplay:10.37,2013-02-09 22:36:00,
2013-02-09 23:41:00,26.4,24.9,29.93,North,5,0.0,0.0,94,0.00,BKN,,0.02,0.0,WeatherDisplay:10.37,2013-02-09 22:41:00,
2013-02-09 23:46:00,26.5,25.0,29.93,North,5,0.0,0.0,94,0.00,BKN,,0.02,0.0,WeatherDisplay:10.37,2013-02-09 22:46:00,
2013-02-09 23:51:00,26.5,25.0,29.93,North,5,0.0,0.0,94,0.00,BKN,,0.02,0.0,WeatherDisplay:10.37,2013-02-09 22:51:00,
2013-02-09 23:56:00,26.6,25.1,29.92,North,5,0.0,0.0,94,0.00,BKN,,0.02,0.0,WeatherDisplay:10.37,2013-02-09 22:56:00,